Time;durP1;ratioP1;P1;durP2;ratioP2;P2;SDS_P1;SDS_P2;PMS_P1;PMS_P2;Temp;Humidity;BMP_temperature;BMP_pressure;BME280_temperature;BME280_humidity;BME280_pressure;Samples;Min_cycle;Max_cycle;Signal;HPM_P1;HPM_P2
2022/01/05 00:02:16;;;;;;;9.07;3.40;;;;;;;;;;4969605;28;20506;-74
2022/01/05 00:04:41;;;;;;;7.82;3.22;;;;;;;;;;4970456;28;20507;-74
2022/01/05 00:07:07;;;;;;;9.43;3.45;;;;;;;;;;4969801;28;20451;-74
2022/01/05 00:09:33;;;;;;;9.50;3.80;;;;;;;;;;4970479;28;20408;-74
2022/01/05 00:11:59;;;;;;;8.80;3.75;;;;;;;;;;4951952;28;20405;-74
2022/01/05 00:14:24;;;;;;;10.13;4.13;;;;;;;;;;4970809;28;20440;-74
2022/01/05 00:16:49;;;;;;;9.55;4.22;;;;;;;;;;4951944;28;20052;-74
2022/01/05 00:19:14;;;;;;;7.28;3.45;;;;;;;;;;4969806;28;20414;-74
2022/01/05 00:21:40;;;;;;;9.90;3.67;;;;;;;;;;4969574;28;20431;-74
2022/01/05 00:24:06;;;;;;;10.20;3.90;;;;;;;;;;4968010;28;20458;-74
2022/01/05 00:26:32;;;;;;;9.38;4.05;;;;;;;;;;4952329;28;20432;-74
2022/01/05 00:28:57;;;;;;;8.10;3.42;;;;;;;;;;4969192;28;20332;-74
2022/01/05 00:31:23;;;;;;;8.95;4.07;;;;;;;;;;4952082;28;20333;-74
2022/01/05 00:33:50;;;;;;;10.57;4.18;;;;;;;;;;4969708;28;20455;-75
2022/01/05 00:36:15;;;;;;;7.60;3.42;;;;;;;;;;4951826;28;20376;-74
2022/01/05 00:38:41;;;;;;;7.28;3.22;;;;;;;;;;4952918;28;20375;-74
2022/01/05 00:41:06;;;;;;;8.50;3.40;;;;;;;;;;4971389;28;20440;-74
2022/01/05 00:43:31;;;;;;;7.70;3.65;;;;;;;;;;4969290;28;20403;-74
2022/01/05 00:45:57;;;;;;;8.20;3.63;;;;;;;;;;4951776;28;20424;-75
2022/01/05 00:48:22;;;;;;;7.47;2.88;;;;;;;;;;4951657;28;20479;-74
2022/01/05 00:50:47;;;;;;;7.63;3.40;;;;;;;;;;4951415;28;20051;-74
2022/01/05 00:53:13;;;;;;;11.25;3.80;;;;;;;;;;4969611;28;20490;-74
2022/01/05 00:55:38;;;;;;;8.20;3.58;;;;;;;;;;4968983;28;20360;-74
2022/01/05 00:58:04;;;;;;;7.60;3.53;;;;;;;;;;4951700;28;20294;-74
2022/01/05 01:00:29;;;;;;;6.80;3.65;;;;;;;;;;4950849;28;20438;-74
2022/01/05 01:02:54;;;;;;;8.20;2.70;;;;;;;;;;4961459;28;20436;-74
2022/01/05 01:05:20;;;;;;;6.70;3.67;;;;;;;;;;4971534;28;20414;-73
2022/01/05 01:07:46;;;;;;;6.13;2.92;;;;;;;;;;4970756;28;20451;-73
2022/01/05 01:10:12;;;;;;;6.82;3.38;;;;;;;;;;4971471;28;20364;-74
2022/01/05 01:12:37;;;;;;;7.00;3.55;;;;;;;;;;4970965;28;20029;-74
2022/01/05 01:15:05;;;;;;;9.07;3.63;;;;;;;;;;4990640;28;20021;-74
2022/01/05 01:17:30;;;;;;;6.38;2.97;;;;;;;;;;4994495;28;20474;-74
2022/01/05 01:19:55;;;;;;;7.57;3.42;;;;;;;;;;4974688;28;20455;-74
2022/01/05 01:22:21;;;;;;;6.55;3.10;;;;;;;;;;4992735;28;20363;-74
2022/01/05 01:24:46;;;;;;;8.65;3.05;;;;;;;;;;4993779;28;20308;-74
2022/01/05 01:27:11;;;;;;;7.78;3.55;;;;;;;;;;4993732;28;20285;-74
2022/01/05 01:29:37;;;;;;;7.18;3.22;;;;;;;;;;4992834;28;20410;-73
2022/01/05 01:32:04;;;;;;;6.53;3.25;;;;;;;;;;4992428;28;20391;-74
2022/01/05 01:34:29;;;;;;;7.20;3.38;;;;;;;;;;4992407;28;20021;-74
2022/01/05 01:36:55;;;;;;;8.32;4.00;;;;;;;;;;4974474;28;20485;-74
2022/01/05 01:39:20;;;;;;;6.68;2.72;;;;;;;;;;4975261;28;20486;-74
2022/01/05 01:41:45;;;;;;;8.52;3.05;;;;;;;;;;4992649;28;20325;-74
2022/01/05 01:44:11;;;;;;;5.82;3.13;;;;;;;;;;4992087;28;20368;-73
2022/01/05 01:46:36;;;;;;;6.55;3.40;;;;;;;;;;4991898;28;20398;-74
2022/01/05 01:49:01;;;;;;;7.25;3.35;;;;;;;;;;4973938;28;20317;-74
2022/01/05 01:51:27;;;;;;;8.15;3.05;;;;;;;;;;4992225;28;20507;-75
2022/01/05 01:53:52;;;;;;;5.50;2.90;;;;;;;;;;4992045;28;20351;-74
2022/01/05 01:56:20;;;;;;;5.53;2.78;;;;;;;;;;4991316;28;20064;-74
2022/01/05 01:58:48;;;;;;;4.45;2.58;;;;;;;;;;4974629;28;20354;-74
2022/01/05 02:01:15;;;;;;;7.07;3.45;;;;;;;;;;4992052;28;20445;-74
2022/01/05 02:03:40;;;;;;;4.80;2.42;;;;;;;;;;4973893;28;20460;-73
2022/01/05 02:06:05;;;;;;;6.25;3.45;;;;;;;;;;4991815;28;20493;-74
2022/01/05 02:08:31;;;;;;;5.30;3.35;;;;;;;;;;4991908;28;20320;-74
2022/01/05 02:10:56;;;;;;;7.50;2.83;;;;;;;;;;4991976;28;20447;-74
2022/01/05 02:13:22;;;;;;;6.07;2.78;;;;;;;;;;4974066;28;20325;-73
2022/01/05 02:15:48;;;;;;;6.95;3.38;;;;;;;;;;4991810;28;20435;-74
2022/01/05 02:21:07;;;;;;;5.70;2.92;;;;;;;;;;4992122;28;21060;-74
2022/01/05 02:23:34;;;;;;;6.13;3.03;;;;;;;;;;4974150;28;20415;-74
2022/01/05 02:26:00;;;;;;;5.63;2.55;;;;;;;;;;4990705;28;20471;-74
2022/01/05 02:28:25;;;;;;;6.80;2.88;;;;;;;;;;4973602;28;20519;-73
2022/01/05 02:30:54;;;;;;;7.13;3.70;;;;;;;;;;4973464;28;20460;-74
2022/01/05 02:33:20;;;;;;;6.18;2.83;;;;;;;;;;4991393;28;20392;-75
2022/01/05 02:35:46;;;;;;;6.82;3.22;;;;;;;;;;4991993;28;20328;-73
2022/01/05 02:38:11;;;;;;;4.22;2.30;;;;;;;;;;4991351;28;20383;-74
2022/01/05 02:40:36;;;;;;;6.22;2.92;;;;;;;;;;4990939;28;20104;-75
2022/01/05 02:43:02;;;;;;;7.05;3.17;;;;;;;;;;4991203;28;20343;-74
2022/01/05 02:45:27;;;;;;;7.38;2.92;;;;;;;;;;4991570;28;20033;-74
2022/01/05 02:47:53;;;;;;;5.53;2.95;;;;;;;;;;4973269;28;20355;-74
2022/01/05 02:50:18;;;;;;;6.15;2.88;;;;;;;;;;4973731;28;20450;-74
2022/01/05 02:52:45;;;;;;;6.43;2.75;;;;;;;;;;4973523;28;20554;-74
2022/01/05 02:55:12;;;;;;;6.22;3.00;;;;;;;;;;4990999;28;20029;-74
2022/01/05 02:57:37;;;;;;;7.28;2.85;;;;;;;;;;4972786;28;20337;-75
2022/01/05 03:00:05;;;;;;;7.10;2.80;;;;;;;;;;4956843;28;20324;-74
2022/01/05 03:02:30;;;;;;;5.00;2.75;;;;;;;;;;4972958;28;20336;-74
2022/01/05 03:04:56;;;;;;;6.63;3.10;;;;;;;;;;4972559;28;20041;-75
2022/01/05 03:07:21;;;;;;;6.22;2.65;;;;;;;;;;4972797;28;20451;-73
2022/01/05 03:09:48;;;;;;;6.28;3.22;;;;;;;;;;4990716;28;20466;-74
2022/01/05 03:12:13;;;;;;;5.22;2.72;;;;;;;;;;4990754;28;20426;-74
2022/01/05 03:14:39;;;;;;;5.65;2.72;;;;;;;;;;4990676;28;20158;-73
2022/01/05 03:17:04;;;;;;;5.97;2.80;;;;;;;;;;4991645;28;20404;-74
2022/01/05 03:19:30;;;;;;;6.68;3.05;;;;;;;;;;4973538;28;20321;-74
2022/01/05 03:21:55;;;;;;;3.92;2.17;;;;;;;;;;4972366;28;20440;-74
2022/01/05 03:24:20;;;;;;;5.35;2.53;;;;;;;;;;4956030;28;20448;-74
2022/01/05 03:26:45;;;;;;;5.10;2.38;;;;;;;;;;4991358;28;20387;-73
2022/01/05 03:29:11;;;;;;;6.30;2.58;;;;;;;;;;4990142;28;20333;-73
2022/01/05 03:31:36;;;;;;;4.53;2.97;;;;;;;;;;4972499;28;20514;-74
2022/01/05 03:34:04;;;;;;;6.00;3.03;;;;;;;;;;4990324;28;20344;-76
2022/01/05 03:36:29;;;;;;;6.45;2.42;;;;;;;;;;4991516;28;20463;-74
2022/01/05 03:38:54;;;;;;;6.38;2.60;;;;;;;;;;4989069;28;20415;-74
2022/01/05 03:41:20;;;;;;;5.45;2.78;;;;;;;;;;4990552;28;20416;-73
2022/01/05 03:43:45;;;;;;;5.78;2.67;;;;;;;;;;4990698;28;20336;-74
2022/01/05 03:46:10;;;;;;;6.55;3.13;;;;;;;;;;4990094;28;20325;-75
2022/01/05 03:48:36;;;;;;;4.68;2.45;;;;;;;;;;4989944;28;20360;-74
2022/01/05 03:51:01;;;;;;;5.90;3.20;;;;;;;;;;4972236;28;20495;-74
2022/01/05 03:53:26;;;;;;;5.65;3.15;;;;;;;;;;4990122;28;20377;-73
2022/01/05 03:55:51;;;;;;;5.50;2.60;;;;;;;;;;4990741;28;20486;-73
2022/01/05 03:58:17;;;;;;;5.95;2.90;;;;;;;;;;4989622;28;20401;-74
2022/01/05 04:00:48;;;;;;;5.63;2.78;;;;;;;;;;4972531;28;20143;-74
2022/01/05 04:03:14;;;;;;;4.05;2.40;;;;;;;;;;4932124;28;20161;-73
2022/01/05 04:05:41;;;;;;;5.32;2.58;;;;;;;;;;4952207;28;20473;-74
2022/01/05 04:08:06;;;;;;;6.00;2.70;;;;;;;;;;4952475;28;20352;-74
2022/01/05 04:10:31;;;;;;;4.88;2.75;;;;;;;;;;4970225;28;20321;-74
2022/01/05 04:12:57;;;;;;;7.15;2.25;;;;;;;;;;4970578;28;20304;-74
2022/01/05 04:15:22;;;;;;;7.07;3.22;;;;;;;;;;4969913;28;20333;-74
2022/01/05 04:17:48;;;;;;;3.47;2.08;;;;;;;;;;4952035;28;20352;-73
2022/01/05 04:20:14;;;;;;;6.72;2.00;;;;;;;;;;4970856;28;20416;-74
2022/01/05 04:22:40;;;;;;;5.32;2.55;;;;;;;;;;4969630;28;20415;-74
2022/01/05 04:25:06;;;;;;;5.85;2.50;;;;;;;;;;4951867;28;20041;-74
2022/01/05 04:27:31;;;;;;;4.60;2.45;;;;;;;;;;4970862;28;20466;-74
2022/01/05 04:29:56;;;;;;;5.43;2.65;;;;;;;;;;4969828;28;20030;-74
2022/01/05 04:32:22;;;;;;;4.55;2.75;;;;;;;;;;4969217;28;20475;-74
2022/01/05 04:34:47;;;;;;;6.25;2.60;;;;;;;;;;4969413;28;20136;-73
2022/01/05 04:37:12;;;;;;;4.90;2.20;;;;;;;;;;4969153;28;20459;-74
2022/01/05 04:39:38;;;;;;;5.45;2.25;;;;;;;;;;4969797;28;20333;-74
2022/01/05 04:42:04;;;;;;;5.60;2.70;;;;;;;;;;4969170;28;20037;-74
2022/01/05 04:44:29;;;;;;;5.45;2.50;;;;;;;;;;4969186;28;20570;-73
2022/01/05 04:46:55;;;;;;;7.00;2.40;;;;;;;;;;4969659;28;20302;-73
2022/01/05 04:49:20;;;;;;;4.68;2.42;;;;;;;;;;4935148;28;20044;-73
2022/01/05 04:51:45;;;;;;;4.70;2.22;;;;;;;;;;4969933;28;20521;-73
2022/01/05 04:54:11;;;;;;;4.18;2.08;;;;;;;;;;4969495;28;20344;-74
2022/01/05 04:56:36;;;;;;;3.17;2.05;;;;;;;;;;4941104;28;20420;-74
2022/01/05 04:59:02;;;;;;;5.85;2.15;;;;;;;;;;4950130;28;20420;-73
2022/01/05 05:01:27;;;;;;;4.15;2.30;;;;;;;;;;4931748;28;20421;-74
2022/01/05 05:03:53;;;;;;;2.92;1.77;;;;;;;;;;4949774;28;20538;-73
2022/01/05 05:06:18;;;;;;;5.72;2.15;;;;;;;;;;4931979;28;20387;-73
2022/01/05 05:08:43;;;;;;;4.18;2.15;;;;;;;;;;4949764;28;20388;-74
2022/01/05 05:11:09;;;;;;;5.43;2.67;;;;;;;;;;4932154;28;20469;-73
2022/01/05 05:13:34;;;;;;;3.30;1.95;;;;;;;;;;4949586;28;20510;-73
2022/01/05 05:15:59;;;;;;;4.25;2.03;;;;;;;;;;4949535;28;20420;-73
2022/01/05 05:18:25;;;;;;;6.03;2.78;;;;;;;;;;4949374;28;20319;-74
2022/01/05 05:20:50;;;;;;;6.55;2.35;;;;;;;;;;4949632;28;20030;-74
2022/01/05 05:23:16;;;;;;;5.35;2.13;;;;;;;;;;4949611;28;20438;-74
2022/01/05 05:25:42;;;;;;;5.32;2.42;;;;;;;;;;4950202;28;20472;-73
2022/01/05 05:28:07;;;;;;;4.97;2.10;;;;;;;;;;4949441;28;20435;-73
2022/01/05 05:30:34;;;;;;;5.57;2.50;;;;;;;;;;4949030;28;20549;-73
2022/01/05 05:33:00;;;;;;;6.63;2.65;;;;;;;;;;4949501;28;20033;-73
2022/01/05 05:35:27;;;;;;;5.60;2.22;;;;;;;;;;4931933;28;20057;-73
2022/01/05 05:37:53;;;;;;;4.72;2.30;;;;;;;;;;4949384;28;20416;-73
2022/01/05 05:40:18;;;;;;;3.85;2.50;;;;;;;;;;4931440;28;20349;-73
2022/01/05 05:42:44;;;;;;;4.30;2.30;;;;;;;;;;4949635;28;20030;-75
2022/01/05 05:45:09;;;;;;;7.82;2.47;;;;;;;;;;4949258;28;20333;-73
2022/01/05 05:47:34;;;;;;;3.75;2.03;;;;;;;;;;4949545;28;20345;-74
2022/01/05 05:50:00;;;;;;;5.68;2.20;;;;;;;;;;4931663;28;20392;-73
2022/01/05 05:52:25;;;;;;;5.50;2.15;;;;;;;;;;4931886;28;20346;-73
2022/01/05 05:54:52;;;;;;;5.72;2.40;;;;;;;;;;4949563;28;20441;-73
2022/01/05 05:57:17;;;;;;;4.50;2.22;;;;;;;;;;4964842;28;20441;-73
2022/01/05 05:59:43;;;;;;;6.18;2.53;;;;;;;;;;4968919;28;20348;-74
2022/01/05 06:02:08;;;;;;;5.07;2.35;;;;;;;;;;4970927;28;20340;-73
2022/01/05 06:04:33;;;;;;;5.82;2.53;;;;;;;;;;4972197;28;20332;-74
2022/01/05 06:06:59;;;;;;;5.22;2.25;;;;;;;;;;4954317;28;20344;-73
2022/01/05 06:09:24;;;;;;;4.15;2.20;;;;;;;;;;4971295;28;20424;-74
2022/01/05 06:11:49;;;;;;;6.25;2.65;;;;;;;;;;4971827;28;20480;-73
2022/01/05 06:14:15;;;;;;;6.10;2.53;;;;;;;;;;4972778;28;20427;-73
2022/01/05 06:16:41;;;;;;;5.40;2.13;;;;;;;;;;4973020;28;20440;-73
2022/01/05 06:19:06;;;;;;;5.60;2.92;;;;;;;;;;4971969;28;20042;-73
2022/01/05 06:21:32;;;;;;;6.57;2.90;;;;;;;;;;4971813;28;20462;-73
2022/01/05 06:23:57;;;;;;;6.32;3.00;;;;;;;;;;4972124;28;20034;-73
2022/01/05 06:26:22;;;;;;;10.20;2.83;;;;;;;;;;4971908;28;20449;-73
2022/01/05 06:28:48;;;;;;;5.03;2.25;;;;;;;;;;4972621;28;20572;-73
2022/01/05 06:31:13;;;;;;;6.45;3.30;;;;;;;;;;4972267;28;20332;-73
2022/01/05 06:33:38;;;;;;;4.85;2.25;;;;;;;;;;4954017;28;20025;-73
2022/01/05 06:36:04;;;;;;;8.30;2.83;;;;;;;;;;4971670;28;20437;-73
2022/01/05 06:38:29;;;;;;;8.25;2.83;;;;;;;;;;4971495;28;20112;-75
2022/01/05 06:40:55;;;;;;;7.47;2.80;;;;;;;;;;4972648;28;20456;-73
2022/01/05 06:43:20;;;;;;;7.43;3.38;;;;;;;;;;4971706;28;20452;-73
2022/01/05 06:45:45;;;;;;;8.40;3.33;;;;;;;;;;4971324;28;20340;-73
2022/01/05 06:48:11;;;;;;;11.65;3.40;;;;;;;;;;4971515;28;20112;-73
2022/01/05 06:50:36;;;;;;;8.30;3.13;;;;;;;;;;4953237;28;20348;-73
2022/01/05 06:53:02;;;;;;;7.80;2.88;;;;;;;;;;4953444;28;20326;-74
2022/01/05 06:55:27;;;;;;;7.63;3.05;;;;;;;;;;4970629;28;20521;-73
2022/01/05 06:57:52;;;;;;;7.53;3.05;;;;;;;;;;4971540;28;20440;-73
2022/01/05 07:00:19;;;;;;;4.60;2.85;;;;;;;;;;4971732;28;20356;-73
2022/01/05 07:02:44;;;;;;;6.57;2.40;;;;;;;;;;4953364;28;20394;-73
2022/01/05 07:05:10;;;;;;;6.35;2.83;;;;;;;;;;4971048;28;20383;-73
2022/01/05 07:07:36;;;;;;;5.63;3.08;;;;;;;;;;4972266;28;20444;-74
2022/01/05 07:10:03;;;;;;;8.60;3.17;;;;;;;;;;4971011;28;20428;-73
2022/01/05 07:12:28;;;;;;;6.05;2.95;;;;;;;;;;4971015;28;20413;-74
2022/01/05 07:14:53;;;;;;;8.52;2.90;;;;;;;;;;4971269;28;20129;-73
2022/01/05 07:17:19;;;;;;;8.48;3.78;;;;;;;;;;4970981;28;20333;-73
2022/01/05 07:19:44;;;;;;;9.50;3.10;;;;;;;;;;4971503;28;20503;-73
2022/01/05 07:22:10;;;;;;;5.93;2.85;;;;;;;;;;4970729;28;20107;-73
2022/01/05 07:24:35;;;;;;;9.95;3.50;;;;;;;;;;4970891;28;20088;-73
2022/01/05 07:27:00;;;;;;;8.63;3.30;;;;;;;;;;4970861;28;20022;-73
2022/01/05 07:29:26;;;;;;;8.57;3.92;;;;;;;;;;4970759;28;20503;-73
2022/01/05 07:31:51;;;;;;;6.13;2.72;;;;;;;;;;4972195;28;20421;-74
2022/01/05 07:34:16;;;;;;;6.88;2.80;;;;;;;;;;4971384;28;20470;-73
2022/01/05 07:36:42;;;;;;;8.40;3.00;;;;;;;;;;4970363;28;20429;-73
2022/01/05 07:39:07;;;;;;;9.50;3.08;;;;;;;;;;4953440;28;20345;-73
2022/01/05 07:41:34;;;;;;;6.30;3.38;;;;;;;;;;4952793;28;20057;-73
2022/01/05 07:43:59;;;;;;;7.75;2.88;;;;;;;;;;4969989;28;20340;-73
2022/01/05 07:46:24;;;;;;;9.05;3.40;;;;;;;;;;4952457;28;20400;-73
2022/01/05 07:48:50;;;;;;;5.70;3.13;;;;;;;;;;4952997;28;20053;-73
2022/01/05 07:51:15;;;;;;;6.97;3.08;;;;;;;;;;4970354;28;20478;-73
2022/01/05 07:53:41;;;;;;;5.68;2.95;;;;;;;;;;4952401;28;20417;-74
2022/01/05 07:56:08;;;;;;;8.25;3.03;;;;;;;;;;4969864;28;20365;-73
2022/01/05 07:58:36;;;;;;;9.52;2.85;;;;;;;;;;4952303;28;20026;-73
2022/01/05 08:01:05;;;;;;;7.65;3.33;;;;;;;;;;4952702;28;20348;-73
2022/01/05 08:03:34;;;;;;;10.13;3.60;;;;;;;;;;4953103;28;20377;-73
2022/01/05 08:06:04;;;;;;;9.23;3.95;;;;;;;;;;4952862;28;20412;-74
2022/01/05 08:08:29;;;;;;;5.45;2.75;;;;;;;;;;4970131;28;20405;-74
2022/01/05 08:10:55;;;;;;;6.70;3.33;;;;;;;;;;4970171;28;20309;-73
2022/01/05 08:13:24;;;;;;;6.72;3.47;;;;;;;;;;4952233;28;20456;-73
2022/01/05 08:15:51;;;;;;;6.60;3.25;;;;;;;;;;4970457;28;20437;-73
2022/01/05 08:18:17;;;;;;;6.88;3.25;;;;;;;;;;4970069;28;20099;-73
2022/01/05 08:20:43;;;;;;;6.88;3.17;;;;;;;;;;4952330;28;20344;-73
2022/01/05 08:23:08;;;;;;;7.68;3.13;;;;;;;;;;4951782;28;20439;-73
2022/01/05 08:25:36;;;;;;;6.75;3.53;;;;;;;;;;4969111;28;20051;-73
2022/01/05 08:28:01;;;;;;;6.28;2.90;;;;;;;;;;4969452;28;20461;-73
2022/01/05 08:30:27;;;;;;;5.18;2.67;;;;;;;;;;4970068;28;20567;-73
2022/01/05 08:32:53;;;;;;;6.22;3.05;;;;;;;;;;4969638;28;20324;-73
2022/01/05 08:35:21;;;;;;;4.95;2.63;;;;;;;;;;4969733;28;20436;-74
2022/01/05 08:37:48;;;;;;;8.13;3.30;;;;;;;;;;4969845;28;20293;-72
2022/01/05 08:40:18;;;;;;;7.57;3.05;;;;;;;;;;4969477;28;20021;-73
2022/01/05 08:42:44;;;;;;;8.40;4.13;;;;;;;;;;4967475;28;20091;-73
2022/01/05 08:45:10;;;;;;;5.38;3.00;;;;;;;;;;4969131;28;20038;-73
2022/01/05 08:47:35;;;;;;;8.88;3.42;;;;;;;;;;4969954;28;20135;-73
2022/01/05 08:50:00;;;;;;;7.05;3.25;;;;;;;;;;4969425;28;20025;-73
2022/01/05 08:52:26;;;;;;;6.47;3.15;;;;;;;;;;4952296;28;20398;-75
2022/01/05 08:54:51;;;;;;;7.28;3.20;;;;;;;;;;4969635;28;20052;-73
2022/01/05 08:57:17;;;;;;;5.05;3.33;;;;;;;;;;4969085;28;20562;-73
2022/01/05 08:59:43;;;;;;;6.43;3.10;;;;;;;;;;4970338;28;20416;-74
2022/01/05 09:02:09;;;;;;;9.85;3.47;;;;;;;;;;4951310;28;20413;-73
2022/01/05 09:04:34;;;;;;;7.88;3.28;;;;;;;;;;4970250;28;20096;-73
2022/01/05 09:07:00;;;;;;;6.40;3.22;;;;;;;;;;4969087;28;20084;-73
2022/01/05 09:09:25;;;;;;;5.93;3.28;;;;;;;;;;4969362;28;20372;-75
2022/01/05 09:11:51;;;;;;;8.23;3.40;;;;;;;;;;4969503;28;20528;-73
2022/01/05 09:14:16;;;;;;;6.55;3.03;;;;;;;;;;4969539;28;20037;-73
2022/01/05 09:16:41;;;;;;;6.38;3.15;;;;;;;;;;4951614;28;20110;-73
2022/01/05 09:19:07;;;;;;;5.60;2.70;;;;;;;;;;4951682;28;20412;-73
2022/01/05 09:21:32;;;;;;;6.72;3.20;;;;;;;;;;4951732;28;20446;-72
2022/01/05 09:23:57;;;;;;;9.65;3.65;;;;;;;;;;4969552;28;20492;-75
2022/01/05 09:26:23;;;;;;;5.90;3.15;;;;;;;;;;4969528;28;20330;-73
2022/01/05 09:28:49;;;;;;;6.95;2.92;;;;;;;;;;4950985;28;20450;-73
2022/01/05 09:31:15;;;;;;;5.93;3.78;;;;;;;;;;4969055;28;20380;-74
2022/01/05 09:33:40;;;;;;;8.43;3.35;;;;;;;;;;4969204;28;20471;-73
2022/01/05 09:36:19;;;;;;;9.50;4.00;;;;;;;;;;4970659;28;20092;-73
2022/01/05 09:43:57;;;;;;;7.35;4.00;;;;;;;;;;4958388;28;20450;-73
2022/01/05 09:46:55;;;;;;;5.97;3.53;;;;;;;;;;4955541;28;20372;-73
2022/01/05 09:49:32;;;;;;;13.07;6.33;;;;;;;;;;4920196;28;20412;-73
2022/01/05 09:52:02;;;;;;;7.93;3.38;;;;;;;;;;4972511;28;20506;-73
2022/01/05 09:54:29;;;;;;;7.25;3.65;;;;;;;;;;4954882;28;20412;-73
2022/01/05 09:56:54;;;;;;;8.23;3.75;;;;;;;;;;4942763;28;20500;-73
2022/01/05 09:59:19;;;;;;;9.82;4.45;;;;;;;;;;4952949;28;20465;-73
2022/01/05 10:01:45;;;;;;;8.73;4.15;;;;;;;;;;4935320;28;20136;-73
2022/01/05 10:04:13;;;;;;;7.78;3.92;;;;;;;;;;4935184;28;20455;-73
2022/01/05 10:06:39;;;;;;;8.30;3.88;;;;;;;;;;4952600;28;20376;-73
2022/01/05 10:09:05;;;;;;;8.68;3.70;;;;;;;;;;4952908;28;20373;-73
2022/01/05 10:11:30;;;;;;;8.32;3.85;;;;;;;;;;4953142;28;20053;-75
2022/01/05 10:13:56;;;;;;;7.75;3.80;;;;;;;;;;4952742;28;20449;-73
2022/01/05 10:16:21;;;;;;;7.68;3.13;;;;;;;;;;4952413;28;20034;-73
2022/01/05 10:18:47;;;;;;;7.35;4.07;;;;;;;;;;4953394;28;20068;-73
2022/01/05 10:21:14;;;;;;;5.85;3.28;;;;;;;;;;4934363;28;20497;-73
2022/01/05 10:23:41;;;;;;;7.93;3.72;;;;;;;;;;4953179;28;20380;-73
2022/01/05 10:26:28;;;;;;;7.65;3.42;;;;;;;;;;4935156;28;20441;-74
2022/01/05 10:29:04;;;;;;;3.63;2.50;;;;;;;;;;4952232;28;20425;-73
2022/01/05 10:31:32;;;;;;;8.15;3.60;;;;;;;;;;4934575;28;20503;-73
2022/01/05 10:33:58;;;;;;;6.60;3.53;;;;;;;;;;4934696;28;20051;-74
2022/01/05 10:36:24;;;;;;;5.00;3.15;;;;;;;;;;4950790;28;20441;-74
2022/01/05 10:38:51;;;;;;;6.68;3.15;;;;;;;;;;4952108;28;20340;-74
2022/01/05 10:41:17;;;;;;;6.03;3.45;;;;;;;;;;4951853;28;20026;-73
2022/01/05 10:44:11;;;;;;;6.35;3.80;;;;;;;;;;4951685;28;20405;-73
2022/01/05 10:46:46;;;;;;;6.47;2.80;;;;;;;;;;4951923;28;20033;-73
2022/01/05 10:49:25;;;;;;;7.43;3.38;;;;;;;;;;4934002;28;20033;-73
2022/01/05 10:51:50;;;;;;;;;;;;;;;;;;4935111;28;20396;-74
2022/01/05 10:54:21;;;;;;;4.85;2.92;;;;;;;;;;4952277;28;20296;-74
2022/01/05 10:56:47;;;;;;;7.80;3.67;;;;;;;;;;4961781;28;20447;-74
2022/01/05 10:59:16;;;;;;;7.53;4.28;;;;;;;;;;4953760;28;20542;-74
2022/01/05 11:01:42;;;;;;;6.85;3.20;;;;;;;;;;4971252;28;20345;-74
2022/01/05 11:04:18;;;;;;;7.15;3.20;;;;;;;;;;4972430;28;20472;-73
2022/01/05 11:07:04;;;;;;;5.57;3.00;;;;;;;;;;4971445;28;20390;-74
2022/01/05 11:09:30;;;;;;;5.57;3.33;;;;;;;;;;4954733;28;20432;-74
2022/01/05 11:11:57;;;;;;;6.22;3.15;;;;;;;;;;4971694;28;20352;-74
2022/01/05 11:14:32;;;;;;;9.60;3.75;;;;;;;;;;4971709;28;20348;-74
2022/01/05 11:17:02;;;;;;;7.53;3.75;;;;;;;;;;4970777;28;20392;-73
2022/01/05 11:19:31;;;;;;;8.23;3.90;;;;;;;;;;4971009;28;20060;-75
2022/01/05 11:22:14;;;;;;;7.57;3.88;;;;;;;;;;4936710;28;20029;-74
2022/01/05 11:24:53;;;;;;;7.07;3.45;;;;;;;;;;4970936;28;20325;-74
2022/01/05 11:27:27;;;;;;;5.90;3.35;;;;;;;;;;4970815;28;20033;-75
2022/01/05 11:29:54;;;;;;;7.50;3.33;;;;;;;;;;4953317;28;20372;-74
2022/01/05 11:32:24;;;;;;;9.20;4.13;;;;;;;;;;4970628;28;20440;-74
2022/01/05 11:34:51;;;;;;;9.52;4.55;;;;;;;;;;4970305;28;20412;-74
2022/01/05 11:37:17;;;;;;;10.68;4.35;;;;;;;;;;4952732;28;20460;-74
2022/01/05 11:39:46;;;;;;;9.50;4.07;;;;;;;;;;4952519;28;20468;-74
2022/01/05 11:42:16;;;;;;;7.18;3.95;;;;;;;;;;4952699;28;20329;-74
2022/01/05 11:44:50;;;;;;;6.20;3.35;;;;;;;;;;4970186;28;20033;-74
2022/01/05 11:47:23;;;;;;;9.55;3.83;;;;;;;;;;4970886;28;20432;-74
2022/01/05 11:49:49;;;;;;;7.88;3.55;;;;;;;;;;4953005;28;20356;-74
2022/01/05 11:52:14;;;;;;;13.13;4.63;;;;;;;;;;4971270;28;20033;-74
2022/01/05 11:54:40;;;;;;;11.88;4.43;;;;;;;;;;4952510;28;20415;-74
2022/01/05 11:57:11;;;;;;;10.35;4.30;;;;;;;;;;4969818;28;20428;-74
2022/01/05 11:59:39;;;;;;;8.82;3.78;;;;;;;;;;4951929;28;20383;-75
2022/01/05 12:02:04;;;;;;;11.20;4.43;;;;;;;;;;4969733;28;20504;-74
2022/01/05 12:04:30;;;;;;;7.30;3.85;;;;;;;;;;4970478;28;20530;-74
2022/01/05 12:07:02;;;;;;;10.68;4.85;;;;;;;;;;4969704;28;20344;-74
2022/01/05 12:09:30;;;;;;;10.50;5.47;;;;;;;;;;4970202;28;20051;-74
2022/01/05 12:11:56;;;;;;;12.98;4.65;;;;;;;;;;4970017;28;20388;-74
2022/01/05 12:14:22;;;;;;;11.45;5.03;;;;;;;;;;4951657;28;20445;-74
2022/01/05 12:16:59;;;;;;;9.95;5.68;;;;;;;;;;4969810;28;20345;-74
2022/01/05 12:19:25;;;;;;;8.18;4.18;;;;;;;;;;4969601;28;20410;-74
2022/01/05 12:21:54;;;;;;;11.23;5.38;;;;;;;;;;4952365;28;20417;-74
2022/01/05 12:24:20;;;;;;;13.45;5.53;;;;;;;;;;4969529;28;20463;-74
2022/01/05 12:27:37;;;;;;;10.27;5.78;;;;;;;;;;4952341;28;20484;-74
2022/01/05 12:30:18;;;;;;;9.18;4.50;;;;;;;;;;4936176;28;20387;-74
2022/01/05 12:32:46;;;;;;;12.55;5.50;;;;;;;;;;4968183;28;20392;-75
2022/01/05 12:35:15;;;;;;;15.47;5.77;;;;;;;;;;4969467;28;20353;-74
2022/01/05 12:37:55;;;;;;;13.90;6.17;;;;;;;;;;4970366;28;20475;-74
2022/01/05 12:40:27;;;;;;;9.07;4.63;;;;;;;;;;4970026;28;20517;-74
2022/01/05 12:43:07;;;;;;;10.60;4.93;;;;;;;;;;4970358;28;20064;-73
2022/01/05 12:45:58;;;;;;;11.55;5.07;;;;;;;;;;4969601;28;20453;-74
2022/01/05 12:48:33;;;;;;;14.23;5.50;;;;;;;;;;4951837;28;20364;-75
2022/01/05 12:51:14;;;;;;;9.32;4.70;;;;;;;;;;4969277;28;20415;-74
2022/01/05 12:54:01;;;;;;;8.45;4.25;;;;;;;;;;4969493;28;20348;-74
2022/01/05 12:56:41;;;;;;;9.30;4.68;;;;;;;;;;4968773;28;20563;-74
2022/01/05 12:59:10;;;;;;;8.60;4.60;;;;;;;;;;4970139;28;20055;-74
2022/01/05 13:01:35;;;;;;;14.27;5.68;;;;;;;;;;4967528;28;20337;-74
2022/01/05 13:04:05;;;;;;;12.23;4.53;;;;;;;;;;4969415;28;20845;-74
2022/01/05 13:06:32;;;;;;;12.77;5.25;;;;;;;;;;4952457;28;20507;-74
2022/01/05 13:09:06;;;;;;;15.55;6.47;;;;;;;;;;4970658;28;20415;-74
2022/01/05 13:11:38;;;;;;;10.40;5.82;;;;;;;;;;4972063;28;20370;-74
2022/01/05 13:14:14;;;;;;;11.63;5.50;;;;;;;;;;4973317;28;20056;-74
2022/01/05 13:16:47;;;;;;;13.10;5.75;;;;;;;;;;4973496;28;20025;-75
2022/01/05 13:19:28;;;;;;;12.02;5.65;;;;;;;;;;4972898;28;20092;-74
2022/01/05 13:21:54;;;;;;;10.88;5.72;;;;;;;;;;4955456;28;20417;-74
2022/01/05 13:24:21;;;;;;;10.32;4.75;;;;;;;;;;4893653;28;20480;-74
2022/01/05 13:27:02;;;;;;;9.63;4.90;;;;;;;;;;4961625;28;20033;-74
2022/01/05 13:29:28;;;;;;;12.55;5.68;;;;;;;;;;4955369;28;20360;-74
2022/01/05 13:32:03;;;;;;;10.98;5.40;;;;;;;;;;4955155;28;20448;-73
2022/01/05 13:34:44;;;;;;;14.75;5.97;;;;;;;;;;4955520;28;20336;-75
2022/01/05 13:37:10;;;;;;;13.10;5.72;;;;;;;;;;4972994;28;20462;-74
2022/01/05 13:39:37;;;;;;;13.07;4.93;;;;;;;;;;4972943;28;20429;-74
2022/01/05 13:42:03;;;;;;;10.05;4.95;;;;;;;;;;4974304;28;20324;-74
2022/01/05 13:44:28;;;;;;;14.15;6.00;;;;;;;;;;4972674;28;20326;-74
2022/01/05 13:46:54;;;;;;;7.75;4.55;;;;;;;;;;4954390;28;20429;-74
2022/01/05 13:49:19;;;;;;;8.77;4.60;;;;;;;;;;4954645;28;20144;-74
2022/01/05 13:52:08;;;;;;;9.35;4.80;;;;;;;;;;4954386;28;20329;-74
2022/01/05 13:54:41;;;;;;;19.85;7.55;;;;;;;;;;4972716;28;20543;-74
2022/01/05 13:57:23;;;;;;;12.05;5.88;;;;;;;;;;4972121;28;20567;-74
2022/01/05 13:59:49;;;;;;;12.23;5.50;;;;;;;;;;4954540;28;20462;-74
2022/01/05 14:02:14;;;;;;;12.52;6.00;;;;;;;;;;4972182;28;20029;-74
2022/01/05 14:04:48;;;;;;;13.48;6.18;;;;;;;;;;4955032;28;20375;-73
2022/01/05 14:07:17;;;;;;;12.65;6.32;;;;;;;;;;4954681;28;20333;-74
2022/01/05 14:09:43;;;;;;;9.70;4.97;;;;;;;;;;4972615;28;20061;-74
2022/01/05 14:12:28;;;;;;;11.23;5.50;;;;;;;;;;4954483;28;20505;-74
2022/01/05 14:14:58;;;;;;;11.05;6.43;;;;;;;;;;4972019;28;20357;-74
2022/01/05 14:17:24;;;;;;;14.85;6.75;;;;;;;;;;4953980;28;20315;-73
2022/01/05 14:19:49;;;;;;;13.82;6.70;;;;;;;;;;4954146;28;20368;-74
2022/01/05 14:22:19;;;;;;;17.08;6.82;;;;;;;;;;4971186;28;20333;-74
2022/01/05 14:24:45;;;;;;;15.63;7.45;;;;;;;;;;4954966;28;20341;-75
2022/01/05 14:27:18;;;;;;;16.25;7.03;;;;;;;;;;4973021;28;20336;-74
2022/01/05 14:29:44;;;;;;;15.23;6.72;;;;;;;;;;4954066;28;20456;-74
2022/01/05 14:32:12;;;;;;;16.95;6.68;;;;;;;;;;4954087;28;20491;-74
2022/01/05 14:34:38;;;;;;;17.02;6.85;;;;;;;;;;4954859;28;20329;-73
2022/01/05 14:37:07;;;;;;;18.63;7.20;;;;;;;;;;4971396;28;20384;-74
2022/01/05 14:39:37;;;;;;;13.95;5.70;;;;;;;;;;4953875;28;20425;-74
2022/01/05 14:42:02;;;;;;;15.60;7.63;;;;;;;;;;4971432;28;20440;-74
2022/01/05 14:44:33;;;;;;;10.13;5.85;;;;;;;;;;4971796;28;20502;-74
2022/01/05 14:47:01;;;;;;;12.35;6.32;;;;;;;;;;4953975;28;20436;-73
2022/01/05 14:49:30;;;;;;;15.23;6.13;;;;;;;;;;4971720;28;20429;-74
2022/01/05 14:51:58;;;;;;;14.55;7.20;;;;;;;;;;4971186;28;20421;-74